Time;durP1;ratioP1;P1;durP2;ratioP2;P2;SDS_P1;SDS_P2;PMS_P1;PMS_P2;Temp;Humidity;BMP_temperature;BMP_pressure;BME280_temperature;BME280_humidity;BME280_pressure;Samples;Min_cycle;Max_cycle;Signal;HPM_P1;HPM_P2
2022/06/04 00:00:42;;;;;;;2.83;1.10;;;24.10;50.80;;;;;;5044391;28;20040;-61
2022/06/04 00:03:09;;;;;;;1.58;1.00;;;24.10;50.80;;;;;;5043455;28;20039;-61
2022/06/04 00:05:38;;;;;;;1.40;0.90;;;24.10;50.80;;;;;;5044128;28;20210;-62
2022/06/04 00:08:06;;;;;;;1.73;0.98;;;24.10;50.80;;;;;;5041437;28;20110;-60
2022/06/04 00:16:05;;;;;;;1.77;1.15;;;24.00;50.70;;;;;;5042312;28;20131;-63
2022/06/04 00:18:30;;;;;;;1.63;1.00;;;24.10;50.70;;;;;;5042697;28;20118;-64
2022/06/04 00:20:56;;;;;;;1.83;1.10;;;24.00;50.70;;;;;;5042374;28;20036;-63
2022/06/04 00:23:22;;;;;;;1.27;1.00;;;24.00;50.70;;;;;;5041692;28;20111;-61
2022/06/04 00:25:51;;;;;;;1.75;1.08;;;24.00;50.70;;;;;;5043494;28;20040;-62
2022/06/04 00:28:19;;;;;;;1.80;1.00;;;24.00;50.70;;;;;;5042141;28;20037;-63
2022/06/04 00:30:44;;;;;;;1.48;0.98;;;24.00;50.60;;;;;;5043382;28;20037;-62
2022/06/04 00:33:11;;;;;;;2.03;1.15;;;24.00;50.90;;;;;;5044715;28;20036;-64
2022/06/04 00:35:37;;;;;;;1.63;1.00;;;24.00;50.70;;;;;;5042757;28;20434;-64
2022/06/04 00:38:04;;;;;;;1.48;1.00;;;24.00;50.60;;;;;;5042748;28;20820;-60
2022/06/04 00:40:51;;;;;;;1.55;0.85;;;24.00;50.60;;;;;;5042285;28;20032;-62
2022/06/04 00:43:18;;;;;;;1.90;1.00;;;24.00;50.60;;;;;;5043719;28;20028;-61
2022/06/04 00:46:34;;;;;;;1.42;0.80;;;24.00;50.60;;;;;;5043829;28;20110;-60
2022/06/04 00:49:00;;;;;;;1.42;0.80;;;24.00;50.70;;;;;;5043753;28;20024;-62
2022/06/04 00:51:26;;;;;;;1.60;0.93;;;23.90;50.50;;;;;;5040317;28;20024;-60
2022/06/04 00:53:54;;;;;;;1.30;1.00;;;24.00;50.60;;;;;;5044141;28;20056;-64
2022/06/04 00:56:37;;;;;;;1.75;0.98;;;23.90;51.10;;;;;;5043534;28;20525;-61
2022/06/04 00:59:19;;;;;;;1.10;0.90;;;23.90;50.60;;;;;;5044137;28;20028;-62
2022/06/04 01:02:04;;;;;;;1.52;1.10;;;23.90;50.50;;;;;;5042097;28;20040;-61
2022/06/04 01:04:49;;;;;;;1.60;0.90;;;23.90;50.50;;;;;;5042979;28;20031;-61
2022/06/04 01:07:39;;;;;;;1.30;0.88;;;23.90;50.50;;;;;;5045113;28;20045;-64
2022/06/04 01:10:17;;;;;;;1.45;0.93;;;23.90;50.50;;;;;;5046461;28;20123;-62
2022/06/04 01:13:07;;;;;;;1.50;0.90;;;23.90;50.50;;;;;;5046187;28;20120;-62
2022/06/04 01:16:00;;;;;;;1.35;0.90;;;23.90;50.50;;;;;;5048073;28;20024;-60
2022/06/04 01:18:53;;;;;;;1.33;0.85;;;23.90;50.50;;;;;;5047354;28;20073;-61
2022/06/04 01:21:43;;;;;;;1.65;1.00;;;23.90;50.50;;;;;;5045381;28;20034;-59
2022/06/04 01:24:37;;;;;;;1.52;1.00;;;23.90;50.50;;;;;;5046761;28;20136;-62
2022/06/04 01:27:17;;;;;;;2.03;0.90;;;23.90;50.50;;;;;;4991956;28;20131;-61
2022/06/04 01:29:49;;;;;;;1.15;0.80;;;23.90;50.50;;;;;;5046382;28;20043;-61
2022/06/04 01:32:23;;;;;;;1.30;0.80;;;23.90;50.50;;;;;;5045315;28;20040;-63
2022/06/04 01:35:05;;;;;;;1.50;0.95;;;23.90;50.50;;;;;;5046527;28;20124;-60
2022/06/04 01:38:04;;;;;;;1.10;0.88;;;23.80;50.40;;;;;;5047456;28;20556;-62
2022/06/04 01:43:23;;;;;;;1.60;1.00;;;23.80;50.40;;;;;;5046483;28;20047;-61
2022/06/04 01:45:52;;;;;;;1.80;1.10;;;23.90;50.50;;;;;;5046848;28;20059;-60
2022/06/04 01:48:19;;;;;;;1.60;1.10;;;23.80;50.50;;;;;;5046887;28;20078;-61
2022/06/04 01:50:57;;;;;;;2.08;0.80;;;23.80;50.40;;;;;;5045636;28;20025;-61
2022/06/04 01:53:31;;;;;;;1.67;0.88;;;23.80;50.40;;;;;;5044944;28;20060;-62
2022/06/04 01:56:04;;;;;;;0.70;0.70;;;23.90;50.50;;;;;;5043837;28;20055;-64
2022/06/04 01:58:38;;;;;;;1.40;0.90;;;23.80;50.40;;;;;;5047683;28;20073;-62
2022/06/04 02:01:10;;;;;;;1.17;0.90;;;23.80;50.40;;;;;;5046457;28;20176;-63
2022/06/04 02:04:05;;;;;;;0.77;0.70;;;23.80;50.40;;;;;;5046283;28;20132;-60
2022/06/04 02:06:38;;;;;;;1.75;1.00;;;23.80;50.40;;;;;;5025294;28;20143;-62
2022/06/04 02:09:13;;;;;;;1.08;0.75;;;23.80;50.40;;;;;;5043391;28;20130;-59
2022/06/04 02:11:44;;;;;;;1.40;0.77;;;23.80;50.40;;;;;;5044803;28;20032;-62
2022/06/04 02:14:10;;;;;;;1.63;0.80;;;23.80;50.40;;;;;;5046719;28;20024;-60
2022/06/04 02:16:43;;;;;;;1.20;0.85;;;23.80;50.30;;;;;;5038936;28;20047;-62
2022/06/04 02:19:09;;;;;;;1.23;0.80;;;23.80;50.30;;;;;;5046807;28;20036;-62
2022/06/04 02:21:35;;;;;;;1.40;1.10;;;23.80;50.30;;;;;;5042665;28;20238;-64
2022/06/04 02:24:03;;;;;;;1.40;0.90;;;23.80;50.30;;;;;;5045535;28;20107;-63
2022/06/04 02:26:28;;;;;;;1.00;0.90;;;23.80;50.30;;;;;;5041716;28;20061;-65
2022/06/04 02:28:57;;;;;;;1.33;0.90;;;23.70;50.30;;;;;;5044797;28;20024;-61
2022/06/04 02:32:05;;;;;;;1.27;0.90;;;23.80;50.30;;;;;;5044017;28;20036;-61
2022/06/04 02:34:52;;;;;;;1.40;0.85;;;23.70;50.30;;;;;;4957269;28;20038;-62
2022/06/04 02:37:33;;;;;;;1.30;0.85;;;23.70;50.30;;;;;;4956415;28;20114;-62
2022/06/04 02:40:13;;;;;;;1.10;0.90;;;23.80;50.30;;;;;;5022912;28;20122;-61
2022/06/04 02:42:56;;;;;;;1.10;0.90;;;23.80;50.30;;;;;;5044826;28;20036;-63
2022/06/04 02:45:37;;;;;;;1.33;0.90;;;23.80;50.40;;;;;;5044788;28;20151;-59
2022/06/04 02:48:15;;;;;;;1.15;0.90;;;23.70;50.20;;;;;;5045172;28;20028;-60
2022/06/04 02:51:06;;;;;;;1.30;0.80;;;23.70;50.30;;;;;;5043901;28;20557;-60
2022/06/04 02:53:34;;;;;;;1.10;0.90;;;23.70;50.20;;;;;;5044736;28;20028;-62
2022/06/04 02:56:06;;;;;;;1.67;1.00;;;23.70;50.20;;;;;;5045778;28;20048;-59
2022/06/04 02:58:33;;;;;;;1.20;0.90;;;23.70;50.20;;;;;;5043810;28;20040;-62
2022/06/04 03:01:02;;;;;;;1.08;0.85;;;23.70;50.20;;;;;;5042060;28;20068;-61
2022/06/04 03:03:28;;;;;;;1.27;0.90;;;23.70;50.30;;;;;;5046176;28;20108;-61
2022/06/04 03:06:00;;;;;;;1.30;1.00;;;23.70;50.20;;;;;;5044145;28;20655;-60
2022/06/04 03:08:38;;;;;;;1.08;0.80;;;23.70;50.20;;;;;;5045532;28;20040;-64
2022/06/04 03:11:04;;;;;;;1.33;0.90;;;23.70;50.20;;;;;;5045676;28;20028;-62
2022/06/04 03:13:30;;;;;;;1.60;0.90;;;23.70;50.20;;;;;;5044687;28;20731;-64
2022/06/04 03:15:55;;;;;;;1.50;0.80;;;23.70;50.20;;;;;;5046039;28;20028;-62
2022/06/04 03:18:21;;;;;;;1.00;0.75;;;23.70;50.20;;;;;;5045931;28;20028;-64
2022/06/04 03:20:47;;;;;;;1.40;0.95;;;23.70;50.20;;;;;;5045336;28;20110;-61
2022/06/04 03:23:13;;;;;;;0.98;0.70;;;23.70;50.20;;;;;;5043260;28;20028;-63
2022/06/04 03:25:39;;;;;;;1.73;0.90;;;23.70;50.20;;;;;;5045255;28;20032;-63
2022/06/04 03:28:07;;;;;;;1.30;0.80;;;23.70;50.20;;;;;;5045603;28;20121;-62
2022/06/04 03:30:34;;;;;;;1.45;0.82;;;23.70;50.20;;;;;;5045086;28;20036;-61
2022/06/04 03:33:00;;;;;;;1.13;0.80;;;23.70;50.20;;;;;;5044017;28;20024;-64
2022/06/04 03:35:26;;;;;;;0.90;0.80;;;23.60;50.10;;;;;;5044729;28;20021;-61
2022/06/04 03:37:52;;;;;;;1.30;0.90;;;23.60;50.10;;;;;;5043142;28;20032;-62
2022/06/04 03:40:18;;;;;;;1.10;0.77;;;23.60;50.10;;;;;;5045527;28;20036;-62
2022/06/04 03:42:43;;;;;;;1.10;0.80;;;23.70;50.70;;;;;;5042784;28;20135;-61
2022/06/04 03:45:11;;;;;;;0.80;0.70;;;23.70;50.20;;;;;;5045701;28;20039;-59
2022/06/04 03:47:37;;;;;;;0.88;0.80;;;23.70;50.20;;;;;;5043784;28;20099;-63
2022/06/04 03:50:14;;;;;;;0.70;0.70;;;23.60;50.10;;;;;;5043805;28;20028;-61
2022/06/04 03:52:41;;;;;;;0.90;0.73;;;23.60;50.10;;;;;;5040966;28;20090;-63
2022/06/04 03:55:08;;;;;;;1.00;0.80;;;23.60;50.10;;;;;;5042538;28;20032;-60
2022/06/04 03:57:45;;;;;;;1.10;0.80;;;23.60;50.10;;;;;;5043328;28;20028;-61
2022/06/04 04:00:17;;;;;;;1.17;0.80;;;23.60;50.10;;;;;;5037374;28;20028;-62
2022/06/04 04:02:45;;;;;;;1.10;0.80;;;23.60;50.10;;;;;;5044105;28;20043;-63
2022/06/04 04:05:14;;;;;;;1.30;0.80;;;23.60;50.10;;;;;;5045866;28;20771;-59
2022/06/04 04:07:40;;;;;;;0.80;0.65;;;23.60;50.10;;;;;;5043686;28;20687;-63
2022/06/04 04:10:08;;;;;;;1.00;0.80;;;23.60;50.10;;;;;;5043139;28;20028;-63
2022/06/04 04:12:33;;;;;;;1.27;0.90;;;23.60;50.10;;;;;;5044265;28;20047;-61
2022/06/04 04:14:59;;;;;;;1.58;0.77;;;23.60;50.10;;;;;;5044559;28;20029;-62
2022/06/04 04:17:25;;;;;;;1.30;0.88;;;23.60;50.10;;;;;;5044650;28;20092;-62
2022/06/04 04:19:51;;;;;;;1.23;0.88;;;23.60;50.10;;;;;;5046558;28;20081;-62
2022/06/04 04:22:18;;;;;;;0.90;0.70;;;23.60;50.20;;;;;;5041649;28;20071;-61
2022/06/04 04:24:43;;;;;;;1.63;0.90;;;23.50;50.10;;;;;;5043921;28;20031;-60
2022/06/04 04:27:09;;;;;;;0.77;0.70;;;23.60;50.10;;;;;;5042751;28;20041;-59
2022/06/04 04:29:34;;;;;;;1.88;0.90;;;23.60;50.20;;;;;;5047020;28;20075;-63
2022/06/04 04:32:00;;;;;;;1.10;0.80;;;23.60;50.20;;;;;;5043116;28;20040;-62
2022/06/04 04:34:26;;;;;;;2.05;0.90;;;23.50;50.10;;;;;;5044113;28;20060;-61
2022/06/04 04:36:51;;;;;;;0.95;0.80;;;23.60;50.20;;;;;;5042266;28;20042;-62
2022/06/04 04:39:17;;;;;;;1.05;0.90;;;23.60;50.20;;;;;;5044684;28;20136;-65
2022/06/04 04:41:42;;;;;;;1.58;0.90;;;23.60;50.20;;;;;;5047334;28;20680;-61
2022/06/04 04:44:08;;;;;;;1.38;0.90;;;23.50;50.10;;;;;;5046856;28;20493;-61
2022/06/04 04:46:34;;;;;;;1.20;0.80;;;23.60;50.10;;;;;;5046604;28;20039;-62
2022/06/04 04:48:59;;;;;;;1.02;0.80;;;23.60;50.20;;;;;;5049564;28;20086;-64
2022/06/04 04:51:26;;;;;;;0.90;0.80;;;23.60;50.10;;;;;;5046455;28;20101;-62
2022/06/04 04:53:53;;;;;;;0.80;0.70;;;23.50;50.10;;;;;;5048948;28;20459;-61
2022/06/04 04:56:21;;;;;;;1.40;0.85;;;23.60;50.20;;;;;;5046666;28;20032;-63
2022/06/04 04:58:47;;;;;;;1.33;0.88;;;23.60;50.20;;;;;;5048412;28;20067;-64
2022/06/04 05:01:18;;;;;;;1.38;0.90;;;23.60;50.30;;;;;;5046935;28;20064;-63
2022/06/04 05:03:44;;;;;;;0.85;0.80;;;23.50;50.20;;;;;;5048373;28;20032;-61
2022/06/04 05:06:12;;;;;;;1.00;0.80;;;23.50;50.20;;;;;;5045658;28;20040;-62
2022/06/04 05:08:38;;;;;;;1.10;0.90;;;23.60;50.30;;;;;;5047950;28;20032;-62
2022/06/04 05:11:09;;;;;;;0.90;0.80;;;23.60;50.30;;;;;;5046005;28;20621;-60
2022/06/04 05:13:35;;;;;;;1.98;0.85;;;23.50;50.30;;;;;;5048136;28;20016;-62
2022/06/04 05:16:02;;;;;;;1.00;0.70;;;23.50;50.30;;;;;;5043309;28;20170;-59
2022/06/04 05:18:27;;;;;;;1.83;0.90;;;23.60;50.30;;;;;;5047756;28;20150;-62
2022/06/04 05:20:53;;;;;;;1.90;0.80;;;23.60;50.30;;;;;;5045432;28;20033;-63
2022/06/04 05:23:19;;;;;;;1.13;0.80;;;23.50;50.30;;;;;;5046165;28;20028;-60
2022/06/04 05:25:44;;;;;;;1.45;0.82;;;23.50;50.30;;;;;;5046116;28;20044;-61
2022/06/04 05:28:10;;;;;;;1.58;0.93;;;23.50;50.30;;;;;;5046791;28;20025;-63
2022/06/04 05:30:36;;;;;;;0.80;0.75;;;23.50;50.30;;;;;;5047271;28;20083;-61
2022/06/04 05:33:02;;;;;;;0.70;0.70;;;23.50;50.30;;;;;;5046556;28;20139;-60
2022/06/04 05:35:27;;;;;;;0.90;0.70;;;23.50;50.30;;;;;;5046229;28;20464;-61
2022/06/04 05:37:53;;;;;;;1.23;0.88;;;23.50;50.30;;;;;;5045858;28;20041;-60
2022/06/04 05:40:19;;;;;;;0.93;0.80;;;23.50;50.30;;;;;;5046757;28;20115;-61
2022/06/04 05:42:44;;;;;;;0.88;0.70;;;23.50;50.30;;;;;;5047614;28;20478;-61
2022/06/04 05:45:10;;;;;;;1.13;0.70;;;23.50;50.30;;;;;;5047791;28;20090;-63
2022/06/04 05:47:36;;;;;;;0.77;0.70;;;23.50;50.30;;;;;;5046230;28;20139;-61
2022/06/04 05:50:01;;;;;;;1.38;0.70;;;23.50;50.30;;;;;;5043724;28;20024;-62
2022/06/04 05:52:27;;;;;;;0.90;0.70;;;23.50;50.30;;;;;;5044249;28;20031;-60
2022/06/04 05:54:53;;;;;;;0.93;0.70;;;23.50;50.30;;;;;;5045349;28;20458;-61
2022/06/04 05:57:18;;;;;;;0.90;0.73;;;23.50;50.20;;;;;;5044605;28;20051;-62
2022/06/04 05:59:44;;;;;;;0.85;0.70;;;23.50;50.20;;;;;;5047324;28;20032;-64
2022/06/04 06:02:11;;;;;;;1.52;0.80;;;23.50;50.20;;;;;;5046044;28;20044;-62
2022/06/04 06:04:37;;;;;;;1.60;0.80;;;23.50;50.30;;;;;;5045582;28;20048;-61
2022/06/04 06:07:02;;;;;;;1.00;0.75;;;23.50;50.30;;;;;;5044802;28;20560;-61
2022/06/04 06:09:29;;;;;;;0.90;0.70;;;23.50;50.20;;;;;;5046186;28;20078;-62
2022/06/04 06:11:55;;;;;;;0.95;0.60;;;23.50;50.20;;;;;;5042011;28;20024;-60
2022/06/04 06:14:22;;;;;;;0.88;0.80;;;23.50;50.20;;;;;;5047289;28;20060;-62
2022/06/04 06:16:50;;;;;;;0.82;0.70;;;23.50;50.20;;;;;;5045627;28;20039;-63
2022/06/04 06:19:17;;;;;;;0.80;0.68;;;23.50;50.20;;;;;;5045492;28;20024;-61
2022/06/04 06:21:43;;;;;;;1.05;0.70;;;23.50;50.20;;;;;;5044612;28;20119;-59
2022/06/04 06:24:10;;;;;;;1.10;0.80;;;23.50;50.20;;;;;;5045002;28;20028;-60
2022/06/04 06:26:54;;;;;;;1.10;0.90;;;23.50;50.20;;;;;;5045807;28;20032;-59
2022/06/04 06:29:26;;;;;;;1.20;0.80;;;23.40;50.20;;;;;;5047175;28;20670;-60
2022/06/04 06:31:52;;;;;;;1.33;0.80;;;23.40;50.10;;;;;;5046122;28;20884;-61
2022/06/04 06:34:19;;;;;;;0.88;0.70;;;23.50;50.20;;;;;;5046348;28;20024;-62
2022/06/04 06:36:46;;;;;;;0.88;0.70;;;23.50;50.20;;;;;;5044169;28;20050;-62
2022/06/04 06:39:11;;;;;;;0.73;0.73;;;23.40;50.10;;;;;;5045368;28;20036;-62
2022/06/04 06:41:37;;;;;;;1.08;0.80;;;23.40;50.20;;;;;;5044140;28;20033;-61
2022/06/04 06:44:03;;;;;;;0.80;0.70;;;23.40;50.20;;;;;;5044556;28;20040;-61
2022/06/04 06:46:35;;;;;;;0.82;0.70;;;23.40;50.10;;;;;;5043541;28;20111;-62
2022/06/04 06:49:23;;;;;;;0.70;0.60;;;23.40;50.10;;;;;;5044208;28;20033;-62
2022/06/04 06:51:51;;;;;;;0.93;0.80;;;23.40;50.10;;;;;;5041890;28;20475;-59
2022/06/04 06:54:19;;;;;;;1.33;0.90;;;23.40;50.10;;;;;;5042635;28;20505;-62
2022/06/04 06:56:47;;;;;;;0.80;0.80;;;23.40;50.00;;;;;;5045038;28;20036;-62
2022/06/04 06:59:13;;;;;;;1.13;0.80;;;23.40;50.00;;;;;;5042526;28;20097;-61
2022/06/04 07:01:42;;;;;;;0.70;0.70;;;23.40;50.00;;;;;;5041998;28;20040;-62
2022/06/04 07:04:08;;;;;;;0.80;0.70;;;23.40;50.00;;;;;;5041483;28;20028;-60
2022/06/04 07:06:34;;;;;;;1.15;0.80;;;23.40;50.10;;;;;;5041543;28;20155;-62
2022/06/04 07:09:04;;;;;;;1.02;0.70;;;23.40;50.10;;;;;;5042363;28;20020;-60
2022/06/04 07:11:29;;;;;;;1.52;0.90;;;23.40;50.10;;;;;;5042772;28;20120;-62
2022/06/04 07:13:55;;;;;;;0.90;0.80;;;23.40;50.10;;;;;;5044548;28;20359;-61
2022/06/04 07:16:21;;;;;;;0.88;0.70;;;23.40;50.10;;;;;;5042275;28;20042;-62
2022/06/04 07:18:47;;;;;;;0.93;0.77;;;23.40;50.10;;;;;;5043909;28;20032;-63
2022/06/04 07:21:13;;;;;;;0.95;0.80;;;23.40;50.10;;;;;;5041632;28;20596;-61
2022/06/04 07:23:39;;;;;;;0.88;0.80;;;23.40;50.10;;;;;;5042137;28;20033;-61
2022/06/04 07:26:05;;;;;;;1.13;0.70;;;23.40;50.00;;;;;;5010308;28;20028;-62
2022/06/04 07:28:32;;;;;;;0.70;0.70;;;23.40;50.00;;;;;;5044905;28;20815;-62
2022/06/04 07:30:58;;;;;;;0.80;0.70;;;23.40;50.00;;;;;;5041527;28;20118;-62
2022/06/04 07:33:27;;;;;;;0.73;0.70;;;23.40;50.00;;;;;;5043564;28;20057;-60
2022/06/04 07:35:53;;;;;;;0.73;0.70;;;23.40;50.00;;;;;;5043494;28;20028;-61
2022/06/04 07:38:18;;;;;;;1.27;0.90;;;23.40;50.00;;;;;;5041670;28;20033;-59
2022/06/04 07:40:45;;;;;;;0.70;0.70;;;23.40;50.10;;;;;;5043023;28;20025;-62
2022/06/04 07:43:12;;;;;;;0.60;0.60;;;23.40;50.00;;;;;;5042714;28;20168;-62
2022/06/04 07:45:38;;;;;;;1.92;0.80;;;23.40;50.10;;;;;;5043469;28;20135;-63
2022/06/04 07:48:05;;;;;;;1.42;0.80;;;23.40;50.10;;;;;;5041886;28;20078;-62
2022/06/04 07:50:31;;;;;;;0.70;0.70;;;23.40;50.20;;;;;;5041977;28;20067;-59
2022/06/04 07:52:58;;;;;;;0.85;0.70;;;23.40;50.20;;;;;;5041027;28;20101;-63
2022/06/04 07:55:24;;;;;;;1.02;0.80;;;23.40;50.20;;;;;;5041885;28;20042;-62
2022/06/04 07:57:49;;;;;;;0.63;0.63;;;23.40;50.30;;;;;;5043667;28;20032;-61
2022/06/04 08:00:16;;;;;;;1.00;0.77;;;23.40;50.30;;;;;;5043460;28;20040;-60
2022/06/04 08:02:45;;;;;;;0.73;0.70;;;23.40;50.30;;;;;;5039755;28;20104;-61
2022/06/04 08:05:11;;;;;;;;;;;23.40;50.40;;;;;;5042668;28;20859;-62
2022/06/04 08:07:37;;;;;;;0.93;0.80;;;23.40;50.40;;;;;;5040687;28;19924;-61
2022/06/04 08:10:04;;;;;;;1.13;0.73;;;23.40;50.40;;;;;;5040998;28;20021;-62
2022/06/04 08:12:33;;;;;;;0.70;0.70;;;23.40;50.40;;;;;;5043207;28;20020;-62
2022/06/04 08:14:59;;;;;;;0.80;0.80;;;23.40;50.40;;;;;;5043994;28;20021;-60
2022/06/04 08:17:26;;;;;;;0.70;0.70;;;23.40;50.40;;;;;;5047223;28;20101;-61
2022/06/04 08:19:52;;;;;;;1.08;0.80;;;23.40;50.40;;;;;;5047538;28;20028;-62
2022/06/04 08:22:18;;;;;;;0.93;0.80;;;23.40;50.40;;;;;;5045179;28;20764;-61
2022/06/04 08:24:47;;;;;;;1.33;0.93;;;23.40;50.40;;;;;;5043798;28;20164;-59
2022/06/04 08:27:13;;;;;;;0.75;0.68;;;23.40;50.50;;;;;;5045150;28;20139;-60
2022/06/04 08:29:39;;;;;;;1.23;0.90;;;23.40;50.40;;;;;;5048164;28;20119;-60
2022/06/04 08:32:05;;;;;;;0.82;0.60;;;23.40;50.40;;;;;;5046363;28;20039;-63
2022/06/04 08:34:31;;;;;;;1.38;0.75;;;23.40;50.50;;;;;;5043832;28;20121;-59
2022/06/04 08:36:58;;;;;;;1.00;0.80;;;23.40;50.40;;;;;;5042800;28;20035;-60
2022/06/04 08:39:25;;;;;;;1.02;0.80;;;23.40;50.50;;;;;;5046142;28;20134;-60
2022/06/04 08:42:03;;;;;;;1.13;0.85;;;23.40;50.40;;;;;;5045231;28;20105;-59
2022/06/04 08:44:51;;;;;;;0.90;0.80;;;23.40;50.30;;;;;;5045906;28;20058;-62
2022/06/04 08:47:20;;;;;;;1.30;0.90;;;23.40;50.20;;;;;;5043699;28;20123;-61
2022/06/04 08:49:48;;;;;;;1.00;0.90;;;23.40;50.40;;;;;;5047296;28;20036;-62
2022/06/04 08:52:16;;;;;;;0.80;0.80;;;23.40;50.30;;;;;;5044086;28;20136;-61
2022/06/04 08:57:33;;;;;;;0.90;0.85;;;23.40;50.30;;;;;;5045989;28;20039;-60
2022/06/04 09:00:21;;;;;;;1.10;0.80;;;23.40;50.20;;;;;;5047100;28;20063;-60
2022/06/04 09:02:46;;;;;;;0.90;0.80;;;23.40;50.10;;;;;;5044709;28;20812;-63
2022/06/04 09:05:19;;;;;;;0.80;0.80;;;23.40;50.10;;;;;;5047129;28;20063;-63
2022/06/04 09:07:49;;;;;;;0.90;0.80;;;23.40;50.10;;;;;;5042711;28;20827;-60
2022/06/04 09:10:25;;;;;;;0.85;0.75;;;23.40;50.00;;;;;;5046805;28;20480;-62
2022/06/04 09:13:01;;;;;;;0.85;0.80;;;23.40;50.00;;;;;;5045943;28;20036;-62
2022/06/04 09:15:29;;;;;;;1.50;0.90;;;23.40;50.10;;;;;;5046119;28;20120;-63
2022/06/04 09:17:57;;;;;;;0.70;0.70;;;23.40;50.00;;;;;;5045105;28;20035;-59
2022/06/04 09:20:40;;;;;;;1.02;0.90;;;23.40;50.00;;;;;;5047890;28;20042;-63
2022/06/04 09:23:18;;;;;;;0.80;0.80;;;23.40;50.10;;;;;;5044529;28;20701;-61
2022/06/04 09:25:45;;;;;;;0.93;0.80;;;23.40;50.30;;;;;;5044634;28;20728;-60
2022/06/04 09:28:16;;;;;;;1.02;0.90;;;23.40;50.30;;;;;;5046518;28;20079;-62
2022/06/04 09:30:56;;;;;;;1.13;0.80;;;23.40;50.60;;;;;;5045477;28;20810;-60
2022/06/04 09:33:35;;;;;;;0.98;0.80;;;23.40;50.70;;;;;;5042392;28;20119;-62
2022/06/04 09:36:01;;;;;;;0.98;0.88;;;23.40;50.80;;;;;;5046106;28;20123;-61
2022/06/04 09:38:32;;;;;;;2.35;1.00;;;23.40;50.80;;;;;;5045580;28;20093;-61
2022/06/04 09:41:04;;;;;;;2.08;0.90;;;23.40;50.80;;;;;;5045691;28;20032;-60
2022/06/04 09:43:31;;;;;;;1.13;0.90;;;23.40;50.90;;;;;;5045713;28;20031;-60
2022/06/04 09:46:02;;;;;;;1.27;0.80;;;23.40;51.10;;;;;;5046153;28;20086;-61
2022/06/04 09:48:34;;;;;;;1.10;0.90;;;23.40;51.30;;;;;;5046377;28;20039;-61
2022/06/04 09:51:14;;;;;;;1.00;0.90;;;23.50;51.40;;;;;;5044020;28;20743;-61
2022/06/04 09:53:46;;;;;;;1.33;1.00;;;23.50;51.40;;;;;;5042836;28;20136;-61
2022/06/04 09:56:15;;;;;;;1.17;1.00;;;23.50;51.50;;;;;;5045742;28;20547;-61
2022/06/04 09:58:45;;;;;;;2.60;1.00;;;23.50;51.30;;;;;;5045324;28;20078;-62
2022/06/04 10:01:17;;;;;;;1.60;1.02;;;23.50;51.80;;;;;;5045611;28;20033;-60
2022/06/04 10:03:45;;;;;;;1.20;0.90;;;23.50;52.40;;;;;;5044636;28;20730;-58
2022/06/04 10:06:14;;;;;;;1.30;1.00;;;23.50;52.30;;;;;;5043001;28;20024;-60
2022/06/04 10:12:21;;;;;;;1.30;1.00;;;23.60;53.10;;;;;;5016138;28;19912;-60
2022/06/04 10:14:58;;;;;;;1.13;0.80;;;23.50;52.80;;;;;;5022722;28;20038;-62
2022/06/04 10:17:34;;;;;;;1.83;1.00;;;23.60;52.70;;;;;;5044173;28;20036;-61
2022/06/04 10:20:00;;;;;;;1.73;1.00;;;23.60;52.60;;;;;;5045454;28;20030;-60
2022/06/04 10:22:25;;;;;;;1.70;0.80;;;23.60;52.60;;;;;;5041832;28;20040;-65
2022/06/04 10:24:54;;;;;;;1.30;0.90;;;23.60;52.50;;;;;;5045000;28;20459;-64
2022/06/04 10:27:38;;;;;;;1.73;0.90;;;23.50;52.40;;;;;;5044359;28;20044;-62
2022/06/04 10:30:06;;;;;;;1.10;0.90;;;23.60;52.40;;;;;;5044565;28;20104;-64
2022/06/04 10:32:56;;;;;;;0.87;0.83;;;23.60;52.50;;;;;;5044037;28;20232;-64
2022/06/04 10:35:48;;;;;;;1.27;0.88;;;23.60;52.50;;;;;;5044600;28;20333;-63
2022/06/04 10:38:51;;;;;;;1.30;0.90;;;23.60;52.50;;;;;;5042612;28;20119;-62
2022/06/04 10:41:35;;;;;;;1.50;0.93;;;23.60;52.40;;;;;;5043602;28;20063;-62
2022/06/04 10:44:31;;;;;;;1.30;0.90;;;23.60;52.40;;;;;;5045055;28;20037;-61
2022/06/04 10:47:17;;;;;;;1.15;0.90;;;23.50;52.30;;;;;;5043377;28;20035;-62
2022/06/04 10:50:19;;;;;;;1.10;0.90;;;23.60;52.40;;;;;;5038755;28;20025;-62
2022/06/04 10:52:56;;;;;;;1.50;0.90;;;23.60;52.40;;;;;;5042165;28;20157;-62
2022/06/04 10:55:56;;;;;;;1.23;0.90;;;23.60;52.40;;;;;;5044226;28;20144;-63
2022/06/04 10:58:36;;;;;;;1.02;0.90;;;23.60;52.40;;;;;;4988255;28;20104;-63
2022/06/04 11:01:41;;;;;;;1.20;0.98;;;23.60;52.40;;;;;;5040386;28;20037;-61
2022/06/04 11:04:31;;;;;;;1.13;0.90;;;23.60;52.50;;;;;;4987571;28;20041;-62
2022/06/04 11:07:07;;;;;;;1.90;0.95;;;23.60;52.50;;;;;;5040458;28;20059;-64
2022/06/04 11:09:39;;;;;;;1.33;0.95;;;23.60;52.50;;;;;;5040892;28;20148;-63
2022/06/04 11:12:09;;;;;;;0.88;0.80;;;23.60;52.50;;;;;;5040752;28;20028;-63
2022/06/04 11:14:44;;;;;;;1.33;0.93;;;23.60;52.60;;;;;;5043185;28;20060;-64
2022/06/04 11:17:24;;;;;;;1.10;0.80;;;23.60;52.60;;;;;;5041458;28;20131;-63
2022/06/04 11:20:06;;;;;;;1.48;0.90;;;23.70;52.80;;;;;;5042172;28;20052;-61
2022/06/04 11:22:38;;;;;;;1.73;1.00;;;23.70;52.60;;;;;;5039945;28;20053;-65
2022/06/04 11:25:24;;;;;;;1.38;0.90;;;23.60;52.60;;;;;;5041783;28;20051;-63
2022/06/04 11:27:58;;;;;;;1.38;1.00;;;23.70;52.80;;;;;;5042706;28;20021;-61
2022/06/04 11:30:46;;;;;;;1.33;0.93;;;23.70;52.80;;;;;;5043016;28;20460;-62
2022/06/04 11:33:45;;;;;;;1.10;1.00;;;23.70;53.00;;;;;;5041131;28;20129;-61
2022/06/04 11:36:13;;;;;;;0.90;0.80;;;23.70;53.10;;;;;;5043025;28;20032;-62
2022/06/04 11:39:01;;;;;;;1.80;1.10;;;23.70;53.00;;;;;;5042423;28;20654;-62
2022/06/04 11:41:46;;;;;;;1.10;0.82;;;23.70;53.10;;;;;;5042398;28;20066;-62
2022/06/04 11:44:32;;;;;;;0.82;0.82;;;23.70;53.10;;;;;;5042297;28;20097;-61
2022/06/04 11:47:11;;;;;;;1.50;1.05;;;23.70;53.10;;;;;;5036745;28;20126;-62
2022/06/04 11:50:11;;;;;;;1.45;1.00;;;23.70;53.00;;;;;;5042387;28;20036;-60
2022/06/04 11:52:52;;;;;;;2.45;1.00;;;23.70;53.10;;;;;;5040890;28;20035;-61
2022/06/04 11:55:23;;;;;;;1.48;1.02;;;23.70;53.10;;;;;;5040728;28;20032;-60
2022/06/04 11:58:00;;;;;;;1.75;1.00;;;23.70;53.10;;;;;;5043566;28;20024;-61
2022/06/04 12:00:38;;;;;;;1.90;1.00;;;23.70;53.30;;;;;;5040497;28;20155;-61
2022/06/04 12:03:09;;;;;;;1.35;1.00;;;23.70;53.40;;;;;;5040165;28;20028;-61
2022/06/04 12:05:43;;;;;;;1.48;0.93;;;23.70;53.40;;;;;;5036729;28;20036;-58
2022/06/04 12:08:15;;;;;;;1.63;1.10;;;23.80;53.40;;;;;;5039091;28;20024;-61
2022/06/04 12:11:18;;;;;;;1.30;1.00;;;23.80;53.60;;;;;;5041645;28;20024;-62
2022/06/04 12:13:52;;;;;;;1.27;1.10;;;23.90;54.00;;;;;;4999407;28;20885;-61
2022/06/04 12:16:45;;;;;;;1.20;1.08;;;23.90;53.50;;;;;;5039973;28;20025;-62
2022/06/04 12:25:07;;;;;;;1.20;0.95;;;24.00;52.90;;;;;;5041105;28;20031;-65
2022/06/04 12:27:33;;;;;;;1.30;1.00;;;24.00;52.80;;;;;;5039668;28;20148;-62
2022/06/04 12:30:00;;;;;;;1.00;0.90;;;24.00;52.70;;;;;;5038381;28;20067;-62
2022/06/04 12:32:33;;;;;;;1.02;0.80;;;24.10;53.00;;;;;;5038629;28;20814;-59
2022/06/04 12:35:11;;;;;;;1.40;0.93;;;24.10;53.20;;;;;;5038960;28;20090;-61
2022/06/04 12:37:54;;;;;;;1.00;0.90;;;24.20;53.00;;;;;;5040032;28;20028;-61
2022/06/04 12:40:19;;;;;;;1.60;0.95;;;24.20;52.80;;;;;;5044209;28;20693;-61
2022/06/04 12:43:14;;;;;;;1.40;0.93;;;24.20;52.60;;;;;;5041181;28;20059;-61
2022/06/04 12:45:47;;;;;;;1.55;1.00;;;24.30;52.60;;;;;;5035037;28;20048;-61
2022/06/04 12:48:37;;;;;;;1.30;1.00;;;24.30;52.70;;;;;;5042819;28;20025;-62
2022/06/04 12:51:09;;;;;;;1.10;0.88;;;24.30;52.50;;;;;;5041058;28;20178;-62
2022/06/04 12:54:05;;;;;;;0.93;0.80;;;24.40;52.80;;;;;;5039817;28;20071;-62
2022/06/04 12:56:36;;;;;;;1.73;1.10;;;24.40;52.60;;;;;;5038551;28;20072;-63
2022/06/04 12:59:06;;;;;;;2.03;1.13;;;24.50;52.70;;;;;;5041277;28;20202;-63
2022/06/04 13:01:33;;;;;;;2.78;1.20;;;24.50;52.30;;;;;;5041389;28;20524;-62
2022/06/04 13:04:11;;;;;;;1.33;1.10;;;24.50;52.20;;;;;;5045707;28;20032;-61
2022/06/04 13:06:37;;;;;;;1.77;1.13;;;24.50;52.10;;;;;;5041386;28;21620;-61
2022/06/04 13:09:24;;;;;;;1.58;1.20;;;24.60;52.00;;;;;;5042531;28;20127;-62
2022/06/04 13:11:52;;;;;;;1.92;1.10;;;24.60;52.00;;;;;;5043666;28;20177;-61
2022/06/04 13:14:33;;;;;;;1.80;1.10;;;24.60;51.80;;;;;;5045281;28;20250;-63
2022/06/04 13:17:29;;;;;;;1.30;1.08;;;24.70;51.80;;;;;;5042867;28;20117;-63
2022/06/04 13:20:16;;;;;;;1.30;1.00;;;24.70;51.70;;;;;;5040710;28;20102;-59
2022/06/04 13:22:51;;;;;;;1.38;1.10;;;24.70;51.80;;;;;;5044576;28;20037;-62
2022/06/04 13:25:23;;;;;;;1.45;1.08;;;24.80;51.80;;;;;;5043201;28;20119;-60
2022/06/04 13:27:54;;;;;;;1.52;0.82;;;24.80;51.60;;;;;;5044372;28;20028;-62
2022/06/04 13:30:24;;;;;;;1.40;1.00;;;24.80;51.60;;;;;;5043732;28;20013;-61
2022/06/04 13:32:50;;;;;;;1.60;1.25;;;24.90;51.60;;;;;;5046460;28;21135;-62
2022/06/04 13:35:19;;;;;;;2.00;1.10;;;24.90;51.60;;;;;;5041654;28;20107;-62